Time;durP1;ratioP1;P1;durP2;ratioP2;P2;SDS_P1;SDS_P2;PMS_P1;PMS_P2;Temp;Humidity;BMP_temperature;BMP_pressure;BME280_temperature;BME280_humidity;BME280_pressure;Samples;Min_cycle;Max_cycle;Signal;HPM_P1;HPM_P2
2023/05/08 00:01:03;;;;;;;;;;;;;;;4.20;66.74;103044.66;5074434;28;19918;-68
2023/05/08 00:03:29;;;;;;;;;;;;;;;4.18;67.23;103045.63;5074600;28;20340;-67
2023/05/08 00:05:54;;;;;;;;;;;;;;;4.14;67.73;103049.34;5073973;28;20231;-66
2023/05/08 00:08:19;;;;;;;;;;;;;;;4.14;67.73;103049.34;5074298;28;19948;-67
2023/05/08 00:10:45;;;;;;;;;;;;;;;4.11;68.43;103052.97;5074139;28;19978;-69
2023/05/08 00:13:10;;;;;;;;;;;;;;;4.10;67.58;103047.75;5073964;28;19912;-69
2023/05/08 00:15:36;;;;;;;;;;;;;;;4.09;67.82;103048.69;5074127;28;20019;-68
2023/05/08 00:18:01;;;;;;;;;;;;;;;4.07;68.75;103047.88;5074046;28;19912;-68
2023/05/08 00:20:26;;;;;;;;;;;;;;;4.06;67.83;103051.44;5072735;28;19917;-68
2023/05/08 00:22:52;;;;;;;;;;;;;;;4.03;67.83;103047.97;5073788;28;19912;-68
2023/05/08 00:25:17;;;;;;;;;;;;;;;4.00;68.15;103048.13;5073684;28;19919;-68
2023/05/08 00:27:49;;;;;;;;;;;;;;;4.01;68.31;103048.97;5073719;28;19916;-68
2023/05/08 00:30:15;;;;;;;;;;;;;;;4.00;68.47;103048.13;5073737;28;19917;-67
2023/05/08 00:32:40;;;;;;;;;;;;;;;4.01;68.19;103048.97;5073941;28;19965;-67
2023/05/08 00:35:05;;;;;;;;;;;;;;;4.00;68.81;103053.38;5073595;28;19985;-67
2023/05/08 00:37:31;;;;;;;;;;;;;;;3.99;69.58;103051.69;5073834;28;19912;-68
2023/05/08 00:39:57;;;;;;;;;;;;;;;3.98;69.46;103060.50;5073623;28;19920;-70
2023/05/08 00:42:22;;;;;;;;;;;;;;;3.97;69.50;103048.25;5073438;28;19920;-68
2023/05/08 00:44:47;;;;;;;;;;;;;;;3.97;69.49;103061.44;5073672;28;19912;-68
2023/05/08 00:47:14;;;;;;;;;;;;;;;3.95;68.96;103060.63;5073397;28;20307;-69
2023/05/08 00:49:39;;;;;;;;;;;;;;;3.97;69.49;103063.22;5073342;28;19916;-69
2023/05/08 00:52:08;;;;;;;;;;;;;;;3.97;69.36;103058.78;5073231;28;19916;-67
2023/05/08 00:54:35;;;;;;;;;;;;;;;3.97;69.56;103064.06;5073196;28;19923;-71
2023/05/08 00:57:01;;;;;;;;;;;;;;;3.96;70.12;103062.34;5072974;28;20433;-69
2023/05/08 00:59:27;;;;;;;;;;;;;;;3.98;70.04;103062.28;5073278;28;19992;-69
2023/05/08 01:01:52;;;;;;;;;;;;;;;3.99;70.29;103062.22;5073531;28;20019;-67
2023/05/08 01:04:23;;;;;;;;;;;;;;;3.99;70.02;103067.50;5074114;28;20355;-67
2023/05/08 01:06:48;;;;;;;;;;;;;;;4.00;70.72;103074.47;5074098;28;19919;-68
2023/05/08 01:09:14;;;;;;;;;;;;;;;4.02;68.82;103075.28;5072255;28;20010;-68
2023/05/08 01:11:46;;;;;;;;;;;;;;;4.07;69.14;103074.25;5072753;28;19912;-69
2023/05/08 01:14:12;;;;;;;;;;;;;;;4.09;69.56;103075.06;5073426;28;19919;-68
2023/05/08 01:16:41;;;;;;;;;;;;;;;4.09;68.80;103070.63;5072868;28;19913;-68
2023/05/08 01:19:26;;;;;;;;;;;;;;;4.11;67.92;103065.28;5072943;28;19970;-68
2023/05/08 01:22:00;;;;;;;;;;;;;;;4.14;67.81;103073.06;5075413;28;19918;-67
2023/05/08 01:24:29;;;;;;;;;;;;;;;4.15;68.19;103072.16;5072869;28;20041;-69
2023/05/08 01:27:00;;;;;;;;;;;;;;;4.14;67.69;103073.06;5072770;28;19966;-68
2023/05/08 01:29:30;;;;;;;;;;;;;;;4.14;67.58;103065.16;5072762;28;19924;-68
2023/05/08 01:32:14;;;;;;;;;;;;;;;4.12;67.36;103067.00;5072636;28;19920;-69
2023/05/08 01:34:59;;;;;;;;;;;;;;;4.13;68.18;103068.72;5072564;28;20275;-67
2023/05/08 01:37:41;;;;;;;;;;;;;;;4.13;67.83;103084.53;5072437;28;19956;-67
2023/05/08 01:40:09;;;;;;;;;;;;;;;4.11;67.76;103075.84;5072747;28;19931;-67
2023/05/08 01:42:40;;;;;;;;;;;;;;;4.09;68.32;103077.69;5072258;28;20368;-69
2023/05/08 01:45:17;;;;;;;;;;;;;;;4.04;67.94;103070.78;5072181;28;19927;-67
2023/05/08 01:47:44;;;;;;;;;;;;;;;4.04;68.76;103081.34;5072389;28;20261;-68
2023/05/08 01:50:15;;;;;;;;;;;;;;;4.04;68.43;103076.06;5072364;28;19971;-67
2023/05/08 01:52:45;;;;;;;;;;;;;;;4.07;68.91;103074.25;5072426;28;19936;-67
2023/05/08 01:55:20;;;;;;;;;;;;;;;4.11;67.64;103076.69;5072209;28;20011;-69
2023/05/08 01:57:51;;;;;;;;;;;;;;;4.18;67.25;103078.16;5072352;28;20003;-67
2023/05/08 02:00:18;;;;;;;;;;;;;;;4.23;66.46;103072.66;5072256;28;19979;-69
2023/05/08 02:02:43;;;;;;;;;;;;;;;4.28;66.73;103078.59;5072278;28;19971;-70
2023/05/08 02:05:09;;;;;;;;;;;;;;;4.33;66.59;103076.63;5072275;28;19952;-68
2023/05/08 02:07:37;;;;;;;;;;;;;;;4.37;66.53;103075.59;5072154;28;19913;-68
2023/05/08 02:10:03;;;;;;;;;;;;;;;4.41;66.36;103082.44;5072074;28;19920;-68
2023/05/08 02:12:31;;;;;;;;;;;;;;;4.48;66.55;103083.88;5072452;28;19913;-69
2023/05/08 02:14:57;;;;;;;;;;;;;;;4.53;66.68;103089.81;5072678;28;20026;-69
2023/05/08 02:17:24;;;;;;;;;;;;;;;4.57;67.24;103090.53;5072236;28;19920;-67
2023/05/08 02:19:50;;;;;;;;;;;;;;;4.62;66.73;103089.41;5074236;28;19913;-67
2023/05/08 02:22:15;;;;;;;;;;;;;;;4.69;66.86;103083.88;5076278;28;19966;-68
2023/05/08 02:24:41;;;;;;;;;;;;;;;4.74;66.12;103087.16;5076225;28;19959;-67
2023/05/08 02:27:08;;;;;;;;;;;;;;;4.80;66.32;103086.88;5076125;28;20008;-67
2023/05/08 02:29:34;;;;;;;;;;;;;;;4.87;66.38;103085.69;5076112;28;19943;-69
2023/05/08 02:32:00;;;;;;;;;;;;;;;4.94;66.13;103087.16;5076127;28;19919;-67
2023/05/08 02:34:26;;;;;;;;;;;;;;;4.98;66.96;103086.94;5075979;28;20102;-66
2023/05/08 02:36:52;;;;;;;;;;;;;;;5.04;66.10;103087.56;5075819;28;19912;-68
2023/05/08 02:39:18;;;;;;;;;;;;;;;5.09;67.01;103078.50;5076084;28;19946;-68
2023/05/08 02:41:44;;;;;;;;;;;;;;;5.17;65.96;103076.34;5075967;28;19966;-68
2023/05/08 02:44:09;;;;;;;;;;;;;;;5.26;65.17;103075.94;5075859;28;19913;-68
2023/05/08 02:46:35;;;;;;;;;;;;;;;5.35;66.51;103073.78;5075757;28;20019;-67
2023/05/08 02:49:11;;;;;;;;;;;;;;;5.38;66.05;103079.78;5075850;28;20470;-67
2023/05/08 02:51:42;;;;;;;;;;;;;;;5.46;66.78;103079.41;5075459;28;19917;-67
2023/05/08 02:54:09;;;;;;;;;;;;;;;5.52;65.99;103082.66;5075737;28;19912;-68
2023/05/08 02:56:49;;;;;;;;;;;;;;;5.56;67.29;103083.34;5075739;28;19967;-68
2023/05/08 02:59:17;;;;;;;;;;;;;;;5.65;66.68;103079.41;5075521;28;19913;-67
2023/05/08 03:01:51;;;;;;;;;;;;;;;5.73;65.96;103079.88;5075466;28;19912;-69
2023/05/08 03:04:30;;;;;;;;;;;;;;;5.84;66.61;103082.88;5075536;28;19920;-66
2023/05/08 03:06:57;;;;;;;;;;;;;;;5.86;65.77;103081.00;5075824;28;19916;-69
2023/05/08 03:09:25;;;;;;;;;;;;;;;6.08;65.75;103087.00;5075760;28;20387;-68
2023/05/08 03:11:58;;;;;;;;;;;;;;;6.95;63.65;103074.50;5075592;28;19958;-69
2023/05/08 03:14:25;;;;;;;;;;;;;;;8.24;57.48;103079.53;5074122;28;19912;-68
2023/05/08 03:16:54;;;;;;;;;;;;;;;9.23;54.97;103069.91;5075276;28;20303;-69
2023/05/08 03:19:26;;;;;;;;;;;;;;;9.75;53.12;103071.88;5075208;28;19913;-68
2023/05/08 03:21:52;;;;;;;;;;;;;;;10.57;51.28;103079.63;5075384;28;20272;-67
2023/05/08 03:24:19;;;;;;;;;;;;;;;11.49;48.08;103085.44;5075109;28;20387;-67
2023/05/08 03:26:44;;;;;;;;;;;;;;;12.11;45.01;103079.09;5074962;28;20049;-67
2023/05/08 03:29:12;;;;;;;;;;;;;;;12.36;43.41;103078.09;5074969;28;19954;-68
2023/05/08 03:31:38;;;;;;;;;;;;;;;12.24;43.62;103084.38;5074507;28;20279;-68
2023/05/08 03:34:03;;;;;;;;;;;;;;;11.88;42.89;103075.53;5075097;28;19966;-67
2023/05/08 03:36:29;;;;;;;;;;;;;;;11.43;44.32;103083.25;5074849;28;20314;-68
2023/05/08 03:38:55;;;;;;;;;;;;;;;10.95;44.60;103086.75;5074782;28;20391;-67
2023/05/08 03:41:21;;;;;;;;;;;;;;;10.39;46.12;103083.53;5073527;28;19912;-68
2023/05/08 03:43:46;;;;;;;;;;;;;;;9.99;47.49;103080.88;5074442;28;19916;-67
2023/05/08 03:46:12;;;;;;;;;;;;;;;9.41;46.78;103084.69;5074724;28;19912;-67
2023/05/08 03:48:38;;;;;;;;;;;;;;;8.86;48.53;103085.50;5074730;28;19920;-67
2023/05/08 03:51:04;;;;;;;;;;;;;;;8.67;49.28;103087.59;5074637;28;19967;-68
2023/05/08 03:53:30;;;;;;;;;;;;;;;8.81;49.50;103094.72;5074448;28;19948;-68
2023/05/08 03:55:56;;;;;;;;;;;;;;;8.63;49.34;103088.72;5074407;28;19912;-67
2023/05/08 03:58:25;;;;;;;;;;;;;;;8.50;50.35;103085.13;5074622;28;19974;-67
2023/05/08 04:01:09;;;;;;;;;;;;;;;8.55;50.17;103093.66;5074442;28;19959;-68
2023/05/08 04:03:53;;;;;;;;;;;;;;;8.42;50.52;103087.38;5074180;28;19912;-68
2023/05/08 04:06:29;;;;;;;;;;;;;;;8.72;49.18;103088.19;5074747;28;19917;-68
2023/05/08 04:09:04;;;;;;;;;;;;;;;9.10;48.51;103076.97;5075376;28;20314;-67
2023/05/08 04:11:30;;;;;;;;;;;;;;;9.26;48.13;103085.69;5075817;28;19913;-67
2023/05/08 04:14:05;;;;;;;;;;;;;;;9.02;47.78;103092.56;5075391;28;19935;-67
2023/05/08 04:16:34;;;;;;;;;;;;;;;8.47;49.26;103090.59;5075390;28;20371;-69
2023/05/08 04:19:06;;;;;;;;;;;;;;;8.08;50.48;103087.53;5074301;28;19912;-69
2023/05/08 04:21:32;;;;;;;;;;;;;;;7.84;51.29;103091.63;5074598;28;19912;-68
2023/05/08 04:23:58;;;;;;;;;;;;;;;7.63;52.39;103088.38;5074286;28;20017;-67
2023/05/08 04:26:23;;;;;;;;;;;;;;;7.53;52.82;103092.50;5074611;28;19912;-69
2023/05/08 04:28:49;;;;;;;;;;;;;;;7.40;53.88;103086.16;5073828;28;19916;-68
2023/05/08 04:31:15;;;;;;;;;;;;;;;7.29;53.12;103096.50;5073930;28;19916;-68
2023/05/08 04:33:42;;;;;;;;;;;;;;;7.31;55.03;103094.63;5073575;28;20375;-67
2023/05/08 04:36:11;;;;;;;;;;;;;;;7.53;53.56;103089.84;5073919;28;19912;-68
2023/05/08 04:38:36;;;;;;;;;;;;;;;7.75;53.12;103087.66;5073752;28;19917;-69
2023/05/08 04:41:02;;;;;;;;;;;;;;;8.00;52.78;103089.78;5073794;28;19919;-68
2023/05/08 04:43:27;;;;;;;;;;;;;;;8.13;52.08;103097.88;5072044;28;20341;-68
2023/05/08 04:45:52;;;;;;;;;;;;;;;8.87;50.92;103097.84;5073277;28;19913;-70
2023/05/08 04:48:18;;;;;;;;;;;;;;;10.32;47.07;103087.59;5106959;28;19916;-67
2023/05/08 04:50:43;;;;;;;;;;;;;;;11.82;44.06;103094.63;5073764;28;19960;-66
2023/05/08 04:53:08;;;;;;;;;;;;;;;12.32;40.92;103095.31;5073882;28;19920;-68
2023/05/08 04:55:34;;;;;;;;;;;;;;;12.70;40.91;103095.03;5072885;28;19920;-69
2023/05/08 04:57:59;;;;;;;;;;;;;;;12.54;40.61;103095.38;5074878;28;19919;-70
2023/05/08 05:00:24;;;;;;;;;;;;;;;11.83;41.48;103091.00;5074356;28;19912;-68
2023/05/08 05:02:50;;;;;;;;;;;;;;;11.24;42.77;103103.34;5073708;28;19966;-68
2023/05/08 05:05:15;;;;;;;;;;;;;;;10.52;43.96;103098.59;5073660;28;19912;-67
2023/05/08 05:07:40;;;;;;;;;;;;;;;9.67;46.31;103101.63;5073600;28;19939;-68
2023/05/08 05:10:06;;;;;;;;;;;;;;;8.84;47.61;103102.50;5073214;28;19916;-69
2023/05/08 05:12:31;;;;;;;;;;;;;;;7.95;51.64;103098.94;5073080;28;19912;-68
2023/05/08 05:14:57;;;;;;;;;;;;;;;7.61;53.61;103100.03;5072880;28;20016;-69
2023/05/08 05:17:22;;;;;;;;;;;;;;;7.49;53.21;103095.38;5072615;28;19920;-68
2023/05/08 05:19:47;;;;;;;;;;;;;;;7.50;53.04;103097.94;5072912;28;20030;-67
2023/05/08 05:22:13;;;;;;;;;;;;;;;7.52;53.57;103092.56;5072693;28;19919;-69
2023/05/08 05:24:38;;;;;;;;;;;;;;;7.58;53.80;103095.75;5072827;28;19913;-67
2023/05/08 05:27:04;;;;;;;;;;;;;;;7.64;53.59;103098.03;5072715;28;19912;-69
2023/05/08 05:29:29;;;;;;;;;;;;;;;7.66;54.00;103104.13;5072721;28;19919;-69
2023/05/08 05:31:55;;;;;;;;;;;;;;;7.66;53.99;103104.13;5072666;28;19955;-67
2023/05/08 05:34:20;;;;;;;;;;;;;;;7.73;53.33;103091.34;5072700;28;19912;-68
2023/05/08 05:36:46;;;;;;;;;;;;;;;7.85;53.55;103108.41;5072679;28;19924;-68
2023/05/08 05:39:12;;;;;;;;;;;;;;;7.90;53.33;103095.72;5072609;28;20530;-70
2023/05/08 05:41:37;;;;;;;;;;;;;;;7.85;53.65;103109.25;5072753;28;19916;-67
2023/05/08 05:44:03;;;;;;;;;;;;;;;7.85;53.49;103106.59;5072437;28;19913;-69
2023/05/08 05:46:31;;;;;;;;;;;;;;;7.86;54.42;103116.25;5072292;28;20019;-70
2023/05/08 05:48:57;;;;;;;;;;;;;;;7.94;53.82;103114.00;5072476;28;19916;-69
2023/05/08 05:51:22;;;;;;;;;;;;;;;7.95;52.89;103109.56;5072569;28;20271;-68
2023/05/08 05:53:47;;;;;;;;;;;;;;;8.05;52.82;103113.38;5071962;28;19920;-68
2023/05/08 05:56:13;;;;;;;;;;;;;;;8.11;52.28;103118.38;5072815;28;19974;-69
2023/05/08 05:58:39;;;;;;;;;;;;;;;8.16;52.01;103116.28;5072508;28;20352;-69
2023/05/08 06:01:05;;;;;;;;;;;;;;;8.20;50.52;103120.47;5072391;28;19912;-70
2023/05/08 06:03:30;;;;;;;;;;;;;;;8.21;50.58;103114.22;5072788;28;19936;-68
2023/05/08 06:05:55;;;;;;;;;;;;;;;8.27;49.96;103119.16;5072690;28;19923;-69
2023/05/08 06:08:21;;;;;;;;;;;;;;;8.28;49.11;103112.91;5072310;28;20002;-68
2023/05/08 06:10:46;;;;;;;;;;;;;;;8.32;48.78;103111.78;5072291;28;19917;-69
2023/05/08 06:13:12;;;;;;;;;;;;;;;8.36;48.59;103115.97;5072227;28;19916;-68
2023/05/08 06:15:37;;;;;;;;;;;;;;;8.40;48.12;103111.38;5072029;28;20018;-68
2023/05/08 06:18:03;;;;;;;;;;;;;;;8.48;47.74;103118.88;5072156;28;19919;-69
2023/05/08 06:20:28;;;;;;;;;;;;;;;8.54;46.79;103118.50;5072173;28;20395;-67
2023/05/08 06:22:53;;;;;;;;;;;;;;;8.62;47.27;103113.56;5072053;28;20357;-67
2023/05/08 06:25:19;;;;;;;;;;;;;;;8.59;45.96;103117.28;5071987;28;20261;-69
2023/05/08 06:27:45;;;;;;;;;;;;;;;8.59;45.63;103111.97;5072011;28;19920;-69
2023/05/08 06:30:11;;;;;;;;;;;;;;;8.55;44.33;103113.09;5071963;28;19912;-69
2023/05/08 06:32:37;;;;;;;;;;;;;;;8.56;44.93;103117.47;5072248;28;19939;-68
2023/05/08 06:35:02;;;;;;;;;;;;;;;8.60;45.29;103113.66;5072205;28;20372;-70
2023/05/08 06:37:28;;;;;;;;;;;;;;;8.62;44.62;103113.56;5072219;28;19971;-68
2023/05/08 06:39:54;;;;;;;;;;;;;;;8.65;44.33;103116.91;5072056;28;19958;-68
2023/05/08 06:42:19;;;;;;;;;;;;;;;8.69;43.57;103118.44;5071864;28;19971;-67
2023/05/08 06:44:44;;;;;;;;;;;;;;;8.70;44.31;103114.00;5071756;28;19920;-69
2023/05/08 06:47:10;;;;;;;;;;;;;;;8.69;44.29;103114.94;5071829;28;19983;-69
2023/05/08 06:49:35;;;;;;;;;;;;;;;8.75;43.44;103125.19;5072075;28;20026;-68
2023/05/08 06:52:00;;;;;;;;;;;;;;;8.80;43.54;103119.59;5071743;28;19912;-69
2023/05/08 06:54:26;;;;;;;;;;;;;;;8.76;43.56;103118.06;5071619;28;20026;-70
2023/05/08 06:56:52;;;;;;;;;;;;;;;8.80;43.24;103120.44;5071822;28;20284;-69
2023/05/08 06:59:17;;;;;;;;;;;;;;;8.85;43.43;103114.84;5071721;28;19913;-68
2023/05/08 07:01:43;;;;;;;;;;;;;;;8.90;42.71;103110.94;5071434;28;20279;-68
2023/05/08 07:04:08;;;;;;;;;;;;;;;8.96;42.72;103121.22;5071877;28;19912;-69
2023/05/08 07:06:33;;;;;;;;;;;;;;;9.04;41.98;103127.88;5073267;28;19959;-68
2023/05/08 07:08:58;;;;;;;;;;;;;;;9.11;43.08;103118.53;5075404;28;20399;-69
2023/05/08 07:11:24;;;;;;;;;;;;;;;9.16;41.56;103124.44;5075225;28;20406;-70
2023/05/08 07:13:49;;;;;;;;;;;;;;;9.23;42.36;103112.44;5075438;28;19917;-69
2023/05/08 07:16:15;;;;;;;;;;;;;;;9.29;41.71;103112.09;5075380;28;19935;-70
2023/05/08 07:18:40;;;;;;;;;;;;;;;9.29;41.53;103104.13;5073945;28;19913;-68
2023/05/08 07:21:06;;;;;;;;;;;;;;;9.32;40.86;103114.56;5075197;28;19938;-68
2023/05/08 07:23:31;;;;;;;;;;;;;;;9.41;42.01;103111.28;5075101;28;19912;-67
2023/05/08 07:25:56;;;;;;;;;;;;;;;9.52;40.88;103108.78;5074971;28;19971;-67
2023/05/08 07:28:22;;;;;;;;;;;;;;;9.50;40.22;103116.00;5074945;28;19913;-68
2023/05/08 07:30:47;;;;;;;;;;;;;;;9.53;41.20;103115.81;5075029;28;20379;-68
2023/05/08 07:33:12;;;;;;;;;;;;;;;9.52;40.25;103110.59;5074935;28;20276;-69
2023/05/08 07:35:38;;;;;;;;;;;;;;;9.59;40.50;103114.59;5076092;28;19913;-68
2023/05/08 07:38:04;;;;;;;;;;;;;;;9.59;40.93;103115.44;5083625;28;19913;-67
2023/05/08 07:40:29;;;;;;;;;;;;;;;9.58;40.26;103107.56;5077845;28;19912;-68
2023/05/08 07:42:54;;;;;;;;;;;;;;;9.60;40.07;103106.50;5074950;28;19912;-70
2023/05/08 07:45:20;;;;;;;;;;;;;;;9.67;40.27;103106.97;5074381;28;19928;-68
2023/05/08 07:47:49;;;;;;;;;;;;;;;9.66;39.00;103115.03;5074739;28;20311;-68
2023/05/08 07:50:16;;;;;;;;;;;;;;;9.74;40.52;103102.94;5074458;28;19931;-68
2023/05/08 07:52:41;;;;;;;;;;;;;;;9.78;40.90;103108.91;5074233;28;20296;-69
2023/05/08 07:55:07;;;;;;;;;;;;;;;9.79;40.72;103110.63;5074247;28;19912;-68
2023/05/08 07:57:40;;;;;;;;;;;;;;;9.85;40.53;103110.25;5074292;28;19912;-69
2023/05/08 08:00:05;;;;;;;;;;;;;;;9.89;40.09;103106.41;5074588;28;19919;-74
2023/05/08 08:02:31;;;;;;;;;;;;;;;9.91;38.14;103110.69;5074241;28;19913;-73
2023/05/08 08:04:56;;;;;;;;;;;;;;;9.92;38.94;103106.22;5074536;28;19957;-67
2023/05/08 08:07:21;;;;;;;;;;;;;;;9.99;38.56;103111.97;5074764;28;19912;-68
2023/05/08 08:09:47;;;;;;;;;;;;;;;10.00;38.44;103111.03;5074556;28;19913;-68
2023/05/08 08:12:12;;;;;;;;;;;;;;;10.04;37.96;103109.88;5074784;28;20049;-67
2023/05/08 08:14:37;;;;;;;;;;;;;;;10.07;37.01;103114.97;5074945;28;20003;-68
2023/05/08 08:17:03;;;;;;;;;;;;;;;10.08;38.21;103111.34;5074480;28;19912;-68
2023/05/08 08:19:28;;;;;;;;;;;;;;;10.15;37.77;103110.88;5076785;28;19913;-67
2023/05/08 08:21:53;;;;;;;;;;;;;;;10.21;36.85;103118.47;5074999;28;20010;-68
2023/05/08 08:24:19;;;;;;;;;;;;;;;10.24;36.77;103118.28;5074406;28;20317;-68
2023/05/08 08:26:44;;;;;;;;;;;;;;;10.30;36.63;103110.81;5074312;28;20372;-69
2023/05/08 08:29:10;;;;;;;;;;;;;;;10.34;36.00;103112.31;5073818;28;19948;-68
2023/05/08 08:31:35;;;;;;;;;;;;;;;10.34;35.57;103114.97;5073652;28;20372;-69
2023/05/08 08:34:00;;;;;;;;;;;;;;;10.39;37.00;103107.53;5073679;28;20019;-68
2023/05/08 08:36:26;;;;;;;;;;;;;;;10.46;36.45;103111.50;5073548;28;19927;-68
2023/05/08 08:38:51;;;;;;;;;;;;;;;10.51;36.06;103104.88;5073552;28;19948;-68
2023/05/08 08:41:16;;;;;;;;;;;;;;;10.55;36.96;103108.19;5073391;28;20351;-69
2023/05/08 08:43:42;;;;;;;;;;;;;;;10.61;36.83;103110.44;5073036;28;20451;-70
2023/05/08 08:46:14;;;;;;;;;;;;;;;10.60;35.83;103107.88;5073082;28;20023;-68
2023/05/08 08:48:44;;;;;;;;;;;;;;;10.61;36.04;103109.56;5073237;28;19922;-68
2023/05/08 08:51:13;;;;;;;;;;;;;;;10.65;35.49;103105.75;5073154;28;19942;-69
2023/05/08 08:53:41;;;;;;;;;;;;;;;10.74;36.23;103110.44;5073340;28;19912;-68
2023/05/08 08:56:08;;;;;;;;;;;;;;;10.81;35.02;103112.56;5073043;28;19978;-69
2023/05/08 08:58:49;;;;;;;;;;;;;;;10.88;35.53;103106.81;5073371;28;19913;-69
2023/05/08 09:01:16;;;;;;;;;;;;;;;10.88;34.70;103112.16;5073576;28;19944;-68
2023/05/08 09:03:42;;;;;;;;;;;;;;;10.70;33.93;103103.63;5073572;28;20023;-69
2023/05/08 09:06:07;;;;;;;;;;;;;;;10.63;33.97;103097.84;5073573;28;20023;-68
2023/05/08 09:08:34;;;;;;;;;;;;;;;10.62;34.94;103093.47;5073450;28;20291;-69
2023/05/08 09:11:00;;;;;;;;;;;;;;;10.75;35.16;103106.81;5074807;28;19919;-68
2023/05/08 09:13:27;;;;;;;;;;;;;;;10.75;35.42;103101.50;5073403;28;20051;-68
2023/05/08 09:15:52;;;;;;;;;;;;;;;10.78;35.55;103101.28;5072798;28;19917;-67
2023/05/08 09:18:18;;;;;;;;;;;;;;;10.82;35.43;103105.44;5072883;28;19990;-69
2023/05/08 09:20:43;;;;;;;;;;;;;;;10.81;36.22;103101.91;5073048;28;19920;-69
2023/05/08 09:23:09;;;;;;;;;;;;;;;10.88;36.03;103113.00;5072489;28;20307;-69
2023/05/08 09:25:43;;;;;;;;;;;;;;;10.92;36.21;103109.16;5072701;28;20316;-68
2023/05/08 09:28:19;;;;;;;;;;;;;;;10.98;36.03;103102.53;5072572;28;19913;-67
2023/05/08 09:30:55;;;;;;;;;;;;;;;10.99;36.63;103104.25;5072128;28;19912;-69
2023/05/08 09:33:23;;;;;;;;;;;;;;;10.96;35.64;103096.44;5072601;28;19912;-68
2023/05/08 09:35:49;;;;;;;;;;;;;;;10.93;35.72;103105.53;5072876;28;19928;-68
2023/05/08 09:38:33;;;;;;;;;;;;;;;10.96;36.22;103099.13;5072495;28;19967;-67
2023/05/08 09:41:04;;;;;;;;;;;;;;;11.02;36.88;103099.56;5072573;28;19912;-69
2023/05/08 09:43:30;;;;;;;;;;;;;;;11.00;36.88;103087.31;5072527;28;19912;-68
2023/05/08 09:45:55;;;;;;;;;;;;;;;11.07;36.66;103096.56;5072217;28;20383;-69
2023/05/08 09:48:35;;;;;;;;;;;;;;;11.02;36.15;103090.72;5072493;28;19924;-70
2023/05/08 09:51:04;;;;;;;;;;;;;;;11.06;36.77;103079.72;5104961;28;19927;-67
2023/05/08 09:53:30;;;;;;;;;;;;;;;11.13;36.58;103091.63;5072211;28;19916;-71
2023/05/08 09:55:55;;;;;;;;;;;;;;;11.17;36.22;103089.59;5072322;28;20003;-68
2023/05/08 09:58:22;;;;;;;;;;;;;;;11.04;36.55;103086.13;5072436;28;20011;-67
2023/05/08 10:00:47;;;;;;;;;;;;;;;11.06;37.08;103074.38;5072042;28;19924;-69
2023/05/08 10:03:12;;;;;;;;;;;;;;;11.08;36.48;103082.28;5072349;28;19912;-68
2023/05/08 10:05:39;;;;;;;;;;;;;;;11.10;35.20;103091.00;5072121;28;19967;-69
2023/05/08 10:08:17;;;;;;;;;;;;;;;11.00;35.26;103092.63;5072188;28;20035;-67
2023/05/08 10:10:43;;;;;;;;;;;;;;;10.89;33.30;103089.84;5072179;28;19913;-68
2023/05/08 10:13:08;;;;;;;;;;;;;;;10.93;34.83;103070.84;5072056;28;19920;-68
2023/05/08 10:15:35;;;;;;;;;;;;;;;11.00;34.75;103073.97;5071047;28;20010;-69
2023/05/08 10:18:05;;;;;;;;;;;;;;;10.93;34.98;103072.69;5072183;28;19917;-67
2023/05/08 10:20:32;;;;;;;;;;;;;;;11.01;34.50;103078.34;5072194;28;20292;-68
2023/05/08 10:22:58;;;;;;;;;;;;;;;11.09;35.04;103070.63;5072241;28;19917;-69
2023/05/08 10:25:24;;;;;;;;;;;;;;;11.03;33.58;103074.59;5072281;28;19946;-68
2023/05/08 10:27:53;;;;;;;;;;;;;;;11.06;34.19;103069.03;5071912;28;19938;-68
2023/05/08 10:30:22;;;;;;;;;;;;;;;11.06;35.09;103066.38;5072085;28;19912;-68
2023/05/08 10:32:50;;;;;;;;;;;;;;;11.07;34.49;103064.56;5072113;28;19913;-67
2023/05/08 10:35:16;;;;;;;;;;;;;;;11.08;34.67;103071.59;5053983;28;19917;-67
2023/05/08 10:37:44;;;;;;;;;;;;;;;11.09;34.88;103059.97;5071808;28;19963;-68
2023/05/08 10:40:10;;;;;;;;;;;;;;;11.10;34.78;103065.19;5072658;28;19912;-68
2023/05/08 10:42:36;;;;;;;;;;;;;;;11.08;34.92;103060.94;5075750;28;19913;-68
2023/05/08 10:45:03;;;;;;;;;;;;;;;11.14;35.62;103055.16;5075902;28;19918;-68
2023/05/08 10:47:32;;;;;;;;;;;;;;;11.27;35.40;103047.94;5075303;28;20450;-68
2023/05/08 10:50:13;;;;;;;;;;;;;;;11.44;35.49;103046.75;5075732;28;19916;-67
2023/05/08 10:52:57;;;;;;;;;;;;;;;11.51;34.61;103037.31;5075495;28;20287;-68
2023/05/08 10:55:29;;;;;;;;;;;;;;;11.57;35.31;103036.03;5075736;28;20342;-68
2023/05/08 10:58:21;;;;;;;;;;;;;;;11.59;34.60;103044.78;5075725;28;19978;-68
2023/05/08 11:00:52;;;;;;;;;;;;;;;11.58;34.01;103027.06;5082138;28;19912;-67
2023/05/08 11:03:18;;;;;;;;;;;;;;;11.58;34.55;103035.91;5075459;28;19964;-68
2023/05/08 11:05:47;;;;;;;;;;;;;;;11.68;34.42;103038.75;5075260;28;19912;-70
2023/05/08 11:08:14;;;;;;;;;;;;;;;11.70;34.30;103032.31;5075761;28;19913;-68
2023/05/08 11:10:40;;;;;;;;;;;;;;;11.71;34.36;103038.50;5075434;28;19913;-68
2023/05/08 11:13:07;;;;;;;;;;;;;;;11.68;33.64;103033.41;5075259;28;19912;-68
2023/05/08 11:15:36;;;;;;;;;;;;;;;11.67;33.63;103037.88;5075106;28;19912;-71
2023/05/08 11:18:05;;;;;;;;;;;;;;;11.57;33.50;103026.19;5075066;28;19920;-66
2023/05/08 11:20:37;;;;;;;;;;;;;;;11.56;33.92;103034.28;5074976;28;20364;-69
2023/05/08 11:23:20;;;;;;;;;;;;;;;11.56;33.91;103023.63;5075147;28;19981;-69
2023/05/08 11:25:45;;;;;;;;;;;;;;;11.65;34.37;103022.94;5074753;28;20018;-69
2023/05/08 11:28:11;;;;;;;;;;;;;;;11.72;34.27;103013.50;5074626;28;20008;-70
2023/05/08 11:30:37;;;;;;;;;;;;;;;11.67;34.22;103021.88;5074761;28;19912;-68
2023/05/08 11:33:02;;;;;;;;;;;;;;;11.70;33.91;103023.47;5074924;28;19913;-67
2023/05/08 11:35:41;;;;;;;;;;;;;;;11.65;34.47;103014.94;5074932;28;19970;-69
2023/05/08 11:38:18;;;;;;;;;;;;;;;11.69;34.33;103024.44;5074832;28;19919;-68
2023/05/08 11:40:45;;;;;;;;;;;;;;;11.72;34.38;103013.50;5074682;28;20015;-69
2023/05/08 11:43:29;;;;;;;;;;;;;;;11.66;34.00;103017.50;5074527;28;19913;-70
2023/05/08 11:45:58;;;;;;;;;;;;;;;11.72;34.57;103014.38;5074648;28;19919;-69
2023/05/08 11:48:24;;;;;;;;;;;;;;;11.80;34.15;103013.81;5074711;28;19917;-70
2023/05/08 11:50:50;;;;;;;;;;;;;;;11.91;34.14;103008.53;5074675;28;19923;-69
2023/05/08 11:53:15;;;;;;;;;;;;;;;11.90;33.97;103009.50;5072434;28;19920;-68
2023/05/08 11:55:41;;;;;;;;;;;;;;;11.85;34.42;103003.63;5073528;28;19916;-69
2023/05/08 11:58:13;;;;;;;;;;;;;;;11.81;34.43;103004.84;5075560;28;19932;-70
2023/05/08 12:00:44;;;;;;;;;;;;;;;11.83;34.47;103002.91;5074685;28;19913;-68
2023/05/08 12:03:14;;;;;;;;;;;;;;;11.77;34.38;102996.19;5074693;28;20202;-69
2023/05/08 12:05:39;;;;;;;;;;;;;;;11.73;34.85;103004.53;5074373;28;19920;-67
2023/05/08 12:08:05;;;;;;;;;;;;;;;11.81;34.92;102996.81;5074283;28;19912;-70
2023/05/08 12:10:31;;;;;;;;;;;;;;;11.96;34.67;102998.34;5074341;28;19952;-68
2023/05/08 12:12:56;;;;;;;;;;;;;;;12.04;34.42;102984.41;5074146;28;19955;-67
2023/05/08 12:15:22;;;;;;;;;;;;;;;12.05;35.12;102988.78;5074088;28;19958;-68
2023/05/08 12:17:47;;;;;;;;;;;;;;;12.04;34.77;102987.06;5074031;28;19966;-68
2023/05/08 12:20:14;;;;;;;;;;;;;;;12.05;35.12;102984.28;5074106;28;19912;-69
2023/05/08 12:22:40;;;;;;;;;;;;;;;12.10;34.82;102991.94;5074376;28;19912;-68
2023/05/08 12:25:06;;;;;;;;;;;;;;;11.99;34.40;102979.41;5074108;28;19912;-70
2023/05/08 12:27:31;;;;;;;;;;;;;;;12.08;34.72;102989.38;5074452;28;19912;-69
2023/05/08 12:29:57;;;;;;;;;;;;;;;12.21;34.59;102988.44;5072744;28;19917;-67
2023/05/08 12:32:22;;;;;;;;;;;;;;;12.15;34.19;102983.59;5073888;28;19913;-67
2023/05/08 12:34:48;;;;;;;;;;;;;;;12.16;34.54;102970.09;5073866;28;20389;-68
2023/05/08 12:37:31;;;;;;;;;;;;;;;12.22;35.11;102974.13;5073938;28;20023;-68
2023/05/08 12:39:56;;;;;;;;;;;;;;;12.30;34.76;102969.03;5073978;28;19955;-69
2023/05/08 12:42:21;;;;;;;;;;;;;;;12.34;34.30;102962.47;5073534;28;19944;-67
2023/05/08 12:44:50;;;;;;;;;;;;;;;12.27;34.43;102956.75;5073767;28;19923;-70